Terminal Aerodrome Forecast
Issued by NWS Detroit/Pontiac, MI

Home | Current Version | Previous Version | Text Only | Print | Product List | Glossary On
Versions: 1 2 3 4 5 6 7 8 9 10 11 12 13 14 15 16 17 18 19 20
487
FTUS43 KDTX 112320
TAFFNT
TAF
KFNT 112320Z 1200/1224 25006KT P6SM BKN045
     FM121300 23011G18KT P6SM SCT030 BKN060
     FM121600 26014G26KT 4SM -SHSN SCT025 BKN040 PROB30 1217/1220
      2SM -SHSN BKN022 OVC035
     FM122000 30016G28KT P6SM -SHSN SCT028 BKN045 PROB30 1220/1223
      2SM -SHSN BKN028 OVC035=

USA.gov is the U.S. government's official web portal to all federal, state and local government web resources and services.